Time;durP1;ratioP1;P1;durP2;ratioP2;P2;SDS_P1;SDS_P2;PMS_P1;PMS_P2;Temp;Humidity;BMP_temperature;BMP_pressure;BME280_temperature;BME280_humidity;BME280_pressure;Samples;Min_cycle;Max_cycle;Signal;HPM_P1;HPM_P2
2024/03/25 00:01:21;;;;;;;26.80;16.90;;;;;;;2.31;95.62;98842.30;1782426;80;25436;-69
2024/03/25 00:03:47;;;;;;;27.30;14.60;;;;;;;2.34;95.64;98836.39;1782411;80;25696;-69
2024/03/25 00:06:14;;;;;;;20.82;11.53;;;;;;;2.38;95.67;98843.28;1782500;80;25422;-69
2024/03/25 00:08:40;;;;;;;20.97;13.65;;;;;;;2.41;95.58;98841.37;1782397;80;27290;-74
2024/03/25 00:11:07;;;;;;;22.55;13.95;;;;;;;2.45;95.50;98840.24;1782416;80;25366;-68
2024/03/25 00:13:34;;;;;;;18.67;12.45;;;;;;;2.46;95.44;98842.63;1782528;79;25553;-69
2024/03/25 00:16:00;;;;;;;23.57;15.28;;;;;;;2.50;95.39;98843.62;1782372;80;25647;-68
2024/03/25 00:18:27;;;;;;;21.12;13.85;;;;;;;2.54;95.36;98842.52;1782425;80;25550;-67
2024/03/25 00:20:53;;;;;;;20.05;12.80;;;;;;;2.56;95.42;98845.69;1782397;80;27146;-68
2024/03/25 00:23:21;;;;;;;19.37;12.07;;;;;;;2.57;95.37;98841.39;1782278;80;25591;-69
2024/03/25 00:25:48;;;;;;;19.27;13.45;;;;;;;2.60;95.82;98842.67;1782352;80;25385;-69
2024/03/25 00:28:14;;;;;;;20.57;13.03;;;;;;;2.58;95.54;98841.63;1782261;80;25604;-68
2024/03/25 00:30:41;;;;;;;20.55;12.03;;;;;;;2.57;95.41;98833.39;1782371;80;25554;-69
2024/03/25 00:33:07;;;;;;;22.95;13.13;;;;;;;2.57;95.44;98844.06;1782345;80;27669;-68
2024/03/25 00:35:34;;;;;;;23.80;13.80;;;;;;;2.58;95.55;98848.85;1782204;80;25469;-68
2024/03/25 00:38:01;;;;;;;21.33;14.13;;;;;;;2.56;95.61;98843.80;1782342;80;25535;-69
2024/03/25 00:40:28;;;;;;;28.27;15.35;;;;;;;2.56;95.51;98841.13;1782287;80;25942;-69
2024/03/25 00:42:54;;;;;;;25.60;15.20;;;;;;;2.56;95.59;98834.46;1782198;80;25445;-69
2024/03/25 00:45:21;;;;;;;21.27;14.45;;;;;;;2.55;95.37;98838.20;1782296;80;27669;-69
2024/03/25 00:47:48;;;;;;;24.00;15.48;;;;;;;2.54;95.39;98837.97;1782252;79;25222;-69
2024/03/25 00:50:15;;;;;;;27.87;16.00;;;;;;;2.53;95.19;98841.70;1782342;80;25577;-69
2024/03/25 00:52:41;;;;;;;23.80;13.85;;;;;;;2.51;95.11;98839.88;1782220;80;25769;-69
2024/03/25 00:55:09;;;;;;;24.90;15.95;;;;;;;2.49;95.24;98836.72;1782331;80;25459;-68
2024/03/25 00:57:36;;;;;;;25.90;16.17;;;;;;;2.47;95.03;98829.55;1782328;80;28022;-69
2024/03/25 01:00:04;;;;;;;25.00;15.78;;;;;;;2.46;95.02;98833.84;1782312;80;25536;-69
2024/03/25 01:02:31;;;;;;;25.87;15.73;;;;;;;2.44;94.94;98834.13;1782641;80;25388;-70
2024/03/25 01:04:59;;;;;;;26.52;15.83;;;;;;;2.41;94.94;98828.02;1782345;80;26293;-70
2024/03/25 01:07:26;;;;;;;25.25;14.50;;;;;;;2.40;94.89;98829.09;1782377;80;25400;-70
2024/03/25 01:09:53;;;;;;;25.15;16.17;;;;;;;2.39;94.83;98836.87;1782388;79;27296;-75
2024/03/25 01:12:20;;;;;;;23.77;15.88;;;;;;;2.38;94.86;98828.08;1782355;80;25623;-72
2024/03/25 01:14:47;;;;;;;25.65;16.35;;;;;;;2.36;94.81;98830.22;1782413;79;25444;-69
2024/03/25 01:17:13;;;;;;;28.98;16.15;;;;;;;2.36;94.79;98828.88;1782524;80;25960;-69
2024/03/25 01:19:40;;;;;;;26.00;16.67;;;;;;;2.34;94.85;98824.94;1782571;80;25378;-70
2024/03/25 01:22:06;;;;;;;27.67;16.52;;;;;;;2.32;94.97;98821.77;1782561;80;27990;-69
2024/03/25 01:24:33;;;;;;;25.57;15.60;;;;;;;2.30;95.03;98822.58;1782391;80;25362;-69
2024/03/25 01:27:01;;;;;;;26.82;15.90;;;;;;;2.24;94.96;98817.31;1782486;80;25561;-74
2024/03/25 01:29:27;;;;;;;25.92;15.60;;;;;;;2.25;95.04;98823.47;1782425;80;26348;-69
2024/03/25 01:31:54;;;;;;;28.30;16.97;;;;;;;2.23;95.06;98823.75;1782486;80;25531;-69
2024/03/25 01:34:21;;;;;;;28.60;16.27;;;;;;;2.22;95.02;98822.16;1782503;80;28010;-68
2024/03/25 01:36:48;;;;;;;27.60;16.55;;;;;;;2.22;95.10;98826.70;1782431;79;25486;-69
2024/03/25 01:39:15;;;;;;;29.95;16.45;;;;;;;2.19;95.12;98821.39;1782444;80;25601;-69
2024/03/25 01:41:42;;;;;;;25.95;16.25;;;;;;;2.20;95.01;98818.20;1782453;80;25605;-69
2024/03/25 01:44:09;;;;;;;25.80;16.30;;;;;;;2.19;95.17;98812.05;1782444;79;25755;-74
2024/03/25 01:46:38;;;;;;;26.05;16.62;;;;;;;2.18;95.14;98812.34;1777256;80;27291;-68
2024/03/25 01:49:07;;;;;;;28.25;15.85;;;;;;;2.17;95.23;98812.89;1777327;80;25732;-69
2024/03/25 01:51:35;;;;;;;27.05;15.38;;;;;;;2.16;95.38;98810.52;1777281;80;25617;-69
2024/03/25 01:54:03;;;;;;;27.22;15.50;;;;;;;2.16;95.34;98815.33;1777220;80;25593;-69
2024/03/25 01:56:33;;;;;;;27.90;14.95;;;;;;;2.16;95.33;98812.66;1777279;80;25650;-69
2024/03/25 01:59:01;;;;;;;25.40;16.25;;;;;;;2.17;95.34;98811.56;1777255;80;27976;-69
2024/03/25 02:01:30;;;;;;;28.02;16.05;;;;;;;2.16;95.28;98811.33;1777157;80;25385;-70
2024/03/25 02:03:57;;;;;;;24.50;15.38;;;;;;;2.13;95.34;98807.89;1777369;80;29979;-70
2024/03/25 02:06:28;;;;;;;26.42;15.88;;;;;;;2.13;95.33;98806.56;1777173;80;25601;-69
2024/03/25 02:08:58;;;;;;;25.97;15.95;;;;;;;2.11;95.32;98802.06;1777192;80;25497;-70
2024/03/25 02:11:25;;;;;;;31.97;17.92;;;;;;;2.11;95.32;98808.73;1777262;80;27654;-70
2024/03/25 02:13:52;;;;;;;29.32;16.70;;;;;;;2.10;95.38;98805.80;1777169;80;25564;-69
2024/03/25 02:16:20;;;;;;;24.63;15.23;;;;;;;2.09;95.46;98806.88;1777297;80;25398;-70
2024/03/25 02:18:47;;;;;;;27.60;17.30;;;;;;;2.08;95.65;98809.30;1777213;79;26304;-70
2024/03/25 02:21:14;;;;;;;27.22;16.42;;;;;;;2.07;95.91;98806.38;1777259;80;25588;-70
2024/03/25 02:23:45;;;;;;;28.77;16.87;;;;;;;2.06;95.89;98803.47;1777240;80;28016;-70
2024/03/25 02:26:11;;;;;;;28.17;16.17;;;;;;;2.04;96.13;98805.61;1777217;80;25588;-70
2024/03/25 02:28:38;;;;;;;32.67;18.52;;;;;;;2.04;95.95;98812.28;1777130;80;25388;-71
2024/03/25 02:31:04;;;;;;;31.55;17.02;;;;;;;2.03;96.04;98810.16;1777159;80;26241;-70
2024/03/25 02:33:31;;;;;;;30.50;17.37;;;;;;;2.03;96.17;98814.16;1777257;80;25604;-70
2024/03/25 02:35:58;;;;;;;31.25;17.95;;;;;;;2.04;96.24;98815.77;1777214;80;27663;-71
2024/03/25 02:38:26;;;;;;;29.80;17.57;;;;;;;2.02;96.36;98814.45;1777209;80;25687;-70
2024/03/25 02:40:52;;;;;;;30.82;17.65;;;;;;;2.01;96.36;98816.33;1777259;80;25388;-70
2024/03/25 02:43:21;;;;;;;29.27;16.87;;;;;;;2.01;96.43;98816.85;1778399;80;26282;-70
2024/03/25 02:45:48;;;;;;;31.67;17.00;;;;;;;2.00;96.50;98818.73;1782744;80;25388;-70
2024/03/25 02:48:15;;;;;;;27.95;16.90;;;;;;;1.99;96.45;98819.02;1782388;80;27258;-71
2024/03/25 02:50:42;;;;;;;29.00;17.35;;;;;;;1.99;96.50;98815.83;1782353;79;25677;-70
2024/03/25 02:53:09;;;;;;;33.58;16.85;;;;;;;1.99;96.42;98819.02;1782530;80;25598;-70
2024/03/25 02:55:35;;;;;;;29.15;16.05;;;;;;;1.99;96.45;98821.16;1782489;80;26076;-70
2024/03/25 02:58:02;;;;;;;32.73;17.48;;;;;;;1.99;96.54;98819.83;1782470;80;25634;-70
2024/03/25 03:00:29;;;;;;;27.48;16.02;;;;;;;1.97;96.71;98821.97;1782443;80;28341;-70
2024/03/25 03:02:56;;;;;;;28.20;17.05;;;;;;;1.98;96.71;98824.12;1782428;80;25538;-70
2024/03/25 03:05:22;;;;;;;28.80;15.45;;;;;;;1.98;96.65;98820.91;1782465;80;25641;-69
2024/03/25 03:07:49;;;;;;;31.45;17.02;;;;;;;1.98;96.76;98825.45;1782383;80;26362;-70
2024/03/25 03:10:16;;;;;;;29.30;17.60;;;;;;;1.96;96.93;98819.59;1782545;80;25574;-75
2024/03/25 03:12:42;;;;;;;31.68;17.82;;;;;;;1.97;96.96;98829.19;1782453;80;27874;-70
2024/03/25 03:15:09;;;;;;;30.17;17.92;;;;;;;1.97;97.08;98830.52;1782350;80;25596;-70
2024/03/25 03:17:36;;;;;;;29.98;16.77;;;;;;;1.96;97.43;98825.73;1782524;80;25444;-70
2024/03/25 03:20:06;;;;;;;24.90;16.62;;;;;;;1.96;97.15;98831.07;1771691;80;25503;-70
2024/03/25 03:22:32;;;;;;;28.95;16.52;;;;;;;1.97;97.14;98843.85;1782616;80;25552;-70
2024/03/25 03:24:59;;;;;;;25.32;15.85;;;;;;;1.97;97.23;98841.97;1782426;80;26821;-70
2024/03/25 03:27:26;;;;;;;30.32;16.70;;;;;;;1.97;97.25;98839.30;1782374;80;25217;-70
2024/03/25 03:29:53;;;;;;;31.07;17.15;;;;;;;1.97;97.33;98840.64;1782406;80;25624;-70
2024/03/25 03:32:20;;;;;;;28.30;16.37;;;;;;;1.97;97.38;98841.19;1782458;80;26556;-70
2024/03/25 03:34:47;;;;;;;31.50;18.15;;;;;;;1.98;97.39;98845.45;1782544;80;25433;-70
2024/03/25 03:37:14;;;;;;;26.15;16.12;;;;;;;1.98;97.48;98840.91;1782410;80;28073;-71
2024/03/25 03:39:41;;;;;;;32.67;16.95;;;;;;;1.98;97.49;98836.91;1782300;80;25594;-71
2024/03/25 03:42:07;;;;;;;30.50;16.85;;;;;;;2.00;97.55;98840.62;1782429;80;25526;-70
2024/03/25 03:44:35;;;;;;;28.17;16.42;;;;;;;2.00;97.49;98844.07;1782356;79;26661;-71
2024/03/25 03:47:02;;;;;;;26.87;16.42;;;;;;;1.99;97.52;98846.50;1782441;80;25418;-70
2024/03/25 03:49:29;;;;;;;29.07;16.50;;;;;;;1.99;97.58;98843.83;1782369;80;27740;-71
2024/03/25 03:51:57;;;;;;;29.35;16.87;;;;;;;1.99;97.52;98845.17;1782336;80;25511;-69
2024/03/25 03:54:24;;;;;;;26.70;17.23;;;;;;;1.98;97.54;98850.23;1782387;80;25412;-70
2024/03/25 03:56:51;;;;;;;28.40;17.40;;;;;;;1.99;97.71;98854.50;1782112;80;25665;-69
2024/03/25 03:59:18;;;;;;;30.15;16.62;;;;;;;1.99;97.73;98857.17;1782070;80;25592;-69
2024/03/25 04:01:44;;;;;;;24.45;15.58;;;;;;;1.99;98.06;98859.84;1782031;80;28028;-68
2024/03/25 04:04:11;;;;;;;27.50;16.42;;;;;;;1.98;97.90;98864.91;1782008;79;25747;-68
2024/03/25 04:06:40;;;;;;;29.00;16.67;;;;;;;1.99;97.98;98865.69;1782079;80;25433;-69
2024/03/25 04:09:10;;;;;;;25.30;16.53;;;;;;;1.99;97.97;98867.02;1782461;80;26493;-70
2024/03/25 04:11:37;;;;;;;30.97;17.48;;;;;;;1.99;98.00;98865.69;1782439;79;25457;-70
2024/03/25 04:14:03;;;;;;;29.92;17.77;;;;;;;2.00;98.01;98866.74;1782370;80;27335;-70
2024/03/25 04:16:30;;;;;;;29.10;17.20;;;;;;;2.02;98.05;98864.57;1782194;80;25597;-70
2024/03/25 04:18:58;;;;;;;26.23;16.67;;;;;;;2.01;98.12;98864.34;1782202;80;25441;-70
2024/03/25 04:21:24;;;;;;;27.10;17.67;;;;;;;2.01;98.16;98859.52;1782012;79;25436;-69
2024/03/25 04:23:51;;;;;;;29.87;17.87;;;;;;;1.98;98.13;98854.23;1782335;80;25633;-69
2024/03/25 04:26:18;;;;;;;32.00;17.05;;;;;;;2.00;98.11;98861.41;1782445;80;27371;-69
2024/03/25 04:28:45;;;;;;;30.35;17.32;;;;;;;2.02;98.17;98862.45;1782248;80;25452;-70
2024/03/25 04:31:11;;;;;;;31.70;18.42;;;;;;;2.02;98.21;98863.23;1782425;80;25380;-69
2024/03/25 04:33:39;;;;;;;29.20;17.40;;;;;;;2.03;98.18;98859.50;1782375;80;26563;-70
2024/03/25 04:36:07;;;;;;;30.48;17.07;;;;;;;2.03;98.30;98860.05;1782449;80;25580;-70
2024/03/25 04:38:33;;;;;;;31.02;17.95;;;;;;;2.04;98.28;98870.44;1782417;80;27331;-69
2024/03/25 04:41:00;;;;;;;27.30;16.70;;;;;;;2.03;98.26;98866.17;1782305;80;25600;-69
2024/03/25 04:43:27;;;;;;;32.03;18.67;;;;;;;2.03;98.14;98872.05;1782287;80;25542;-69
2024/03/25 04:45:53;;;;;;;30.32;18.25;;;;;;;2.02;98.41;98871.23;1782342;80;25606;-68
2024/03/25 04:48:19;;;;;;;32.08;17.95;;;;;;;2.02;98.36;98869.12;1782350;80;25552;-69
2024/03/25 04:50:47;;;;;;;33.02;19.55;;;;;;;2.03;98.53;98868.05;1782503;80;27212;-69
2024/03/25 04:53:13;;;;;;;32.23;19.05;;;;;;;2.03;98.37;98870.17;1782508;80;25799;-68
2024/03/25 04:55:40;;;;;;;26.30;17.57;;;;;;;2.04;98.37;98872.30;1782423;80;25460;-69
2024/03/25 04:58:06;;;;;;;29.00;17.92;;;;;;;2.04;98.45;98871.77;1782333;80;26208;-69
2024/03/25 05:00:33;;;;;;;31.42;18.70;;;;;;;2.06;98.49;98870.16;1782399;80;25394;-67
2024/03/25 05:02:59;;;;;;;33.42;19.25;;;;;;;2.07;98.45;98866.94;1782362;80;28059;-69
2024/03/25 05:05:26;;;;;;;34.10;18.67;;;;;;;2.06;98.35;98868.82;1782328;80;25688;-72
2024/03/25 05:07:54;;;;;;;30.65;18.02;;;;;;;2.08;98.35;98871.98;1771296;80;25654;-69
2024/03/25 05:10:21;;;;;;;28.73;18.30;;;;;;;2.10;98.32;98874.38;1782169;80;25942;-69
2024/03/25 05:12:49;;;;;;;31.37;18.80;;;;;;;2.10;98.39;98869.03;1782284;80;25381;-69
2024/03/25 05:15:16;;;;;;;32.70;19.10;;;;;;;2.12;98.44;98873.54;1782344;80;27664;-69
2024/03/25 05:17:43;;;;;;;33.20;20.17;;;;;;;2.16;98.50;98875.88;1782230;80;25469;-70
2024/03/25 05:20:11;;;;;;;33.55;18.25;;;;;;;2.19;98.60;98870.75;1782348;80;25408;-69
2024/03/25 05:22:38;;;;;;;35.83;20.00;;;;;;;2.23;98.72;98870.97;1782414;80;25613;-69
2024/03/25 05:25:05;;;;;;;32.73;19.85;;;;;;;2.23;98.61;98870.45;1782331;80;25528;-69
2024/03/25 05:27:31;;;;;;;32.03;18.92;;;;;;;2.27;98.72;98873.33;1782317;80;27870;-69
2024/03/25 05:29:58;;;;;;;29.45;18.20;;;;;;;2.31;98.68;98868.20;1771417;80;25468;-69
2024/03/25 05:32:26;;;;;;;37.42;19.57;;;;;;;2.36;99.03;98869.47;1782291;80;25606;-68
2024/03/25 05:34:53;;;;;;;29.65;17.77;;;;;;;2.41;99.04;98872.06;1782279;80;25676;-69
2024/03/25 05:37:19;;;;;;;31.40;19.50;;;;;;;2.42;98.57;98878.45;1782408;80;25541;-70
2024/03/25 05:39:46;;;;;;;32.67;18.92;;;;;;;2.44;98.71;98879.49;1782307;80;27675;-70
2024/03/25 05:42:13;;;;;;;31.55;19.87;;;;;;;2.49;98.91;98882.64;1782435;80;25296;-70
2024/03/25 05:44:39;;;;;;;36.48;20.30;;;;;;;2.54;99.01;98889.23;1779329;80;25597;-69
2024/03/25 05:47:06;;;;;;;32.93;19.20;;;;;;;2.58;99.00;98883.00;1777088;80;25625;-70
2024/03/25 05:49:33;;;;;;;32.03;20.02;;;;;;;2.60;98.76;98884.84;1777289;80;25411;-73
2024/03/25 05:51:59;;;;;;;35.65;20.37;;;;;;;2.63;98.58;98887.48;1777312;80;27309;-70
2024/03/25 05:54:26;;;;;;;32.55;19.60;;;;;;;2.66;98.67;98886.91;1777215;80;25425;-71
2024/03/25 05:56:53;;;;;;;33.40;20.50;;;;;;;2.71;98.82;98894.84;1777240;80;25442;-70
2024/03/25 05:59:19;;;;;;;35.75;20.55;;;;;;;2.76;98.77;98885.41;1777228;80;25656;-70
2024/03/25 06:01:46;;;;;;;33.48;21.52;;;;;;;2.82;99.11;98891.45;1777281;80;25195;-70
2024/03/25 06:04:12;;;;;;;40.65;21.65;;;;;;;2.88;98.86;98891.64;1777297;79;27286;-70
2024/03/25 06:06:39;;;;;;;32.53;20.30;;;;;;;2.94;98.60;98898.47;1777140;80;25546;-70
2024/03/25 06:09:06;;;;;;;35.35;21.23;;;;;;;3.01;98.89;98889.30;1777199;80;25522;-71
2024/03/25 06:11:34;;;;;;;34.43;21.30;;;;;;;3.13;99.64;98892.28;1777206;80;25595;-69
2024/03/25 06:14:00;;;;;;;38.75;21.62;;;;;;;3.21;99.25;98890.83;1776613;80;25613;-70
2024/03/25 06:16:27;;;;;;;38.10;21.82;;;;;;;3.30;99.13;98893.88;1775696;80;28345;-71
2024/03/25 06:18:54;;;;;;;33.38;20.95;;;;;;;3.37;98.79;98898.81;1775489;80;25657;-70
2024/03/25 06:21:22;;;;;;;35.25;21.90;;;;;;;3.47;99.05;98910.66;1775735;80;25759;-70
2024/03/25 06:23:48;;;;;;;29.18;20.25;;;;;;;3.55;98.93;98913.20;1775663;80;26067;-70
2024/03/25 06:26:15;;;;;;;34.35;21.73;;;;;;;3.68;99.06;98905.73;1775858;80;25772;-70
2024/03/25 06:28:42;;;;;;;39.83;21.62;;;;;;;3.91;100.00;98907.95;1776069;80;27399;-69
2024/03/25 06:36:39;;;;;;;30.57;18.85;;;;;;;4.58;99.52;98912.44;1777035;80;25620;-68
2024/03/25 06:39:06;;;;;;;33.28;20.27;;;;;;;4.73;96.85;98912.09;1777040;80;25374;-69
2024/03/25 06:41:33;;;;;;;28.73;18.27;;;;;;;4.81;96.57;98912.70;1776978;80;27174;-69
2024/03/25 06:44:00;;;;;;;28.47;18.73;;;;;;;4.97;95.95;98913.68;1776929;80;25381;-69
2024/03/25 06:46:26;;;;;;;30.85;17.55;;;;;;;5.13;95.69;98918.92;1776954;80;25551;-69
2024/03/25 06:48:53;;;;;;;26.15;17.15;;;;;;;5.35;96.15;98917.31;1776893;80;25600;-69
2024/03/25 06:51:20;;;;;;;27.42;16.60;;;;;;;5.50;93.60;98918.27;1781587;80;25587;-69
2024/03/25 06:53:47;;;;;;;28.70;17.42;;;;;;;5.60;93.43;98923.36;1782213;80;28065;-68
2024/03/25 06:56:14;;;;;;;27.27;16.75;;;;;;;5.74;93.03;98925.15;1782129;80;25404;-68
2024/03/25 06:58:41;;;;;;;26.80;16.80;;;;;;;5.88;91.93;98932.53;1782240;80;25613;-70
2024/03/25 07:01:12;;;;;;;25.65;16.70;;;;;;;6.04;92.00;98926.20;1782414;80;26617;-70
2024/03/25 07:03:39;;;;;;;29.32;15.72;;;;;;;6.27;91.94;98926.12;1782461;80;25377;-70
2024/03/25 07:06:06;;;;;;;26.62;16.40;;;;;;;6.51;92.33;98915.70;1782171;80;27384;-67
2024/03/25 07:08:33;;;;;;;27.93;16.10;;;;;;;6.83;90.74;98933.82;1782050;79;25380;-67
2024/03/25 07:11:00;;;;;;;25.35;15.60;;;;;;;6.96;88.73;98936.09;1782196;80;25468;-67
2024/03/25 07:13:26;;;;;;;23.57;14.87;;;;;;;7.04;87.27;98931.83;1782097;80;26000;-68
2024/03/25 07:15:53;;;;;;;25.57;15.78;;;;;;;7.13;87.33;98929.91;1782190;80;25382;-68
2024/03/25 07:18:19;;;;;;;27.30;14.78;;;;;;;7.40;89.96;98930.65;1782129;80;27294;-68
2024/03/25 07:20:49;;;;;;;22.35;14.05;;;;;;;7.77;89.06;98927.75;1782088;80;25618;-67
2024/03/25 07:23:15;;;;;;;22.10;14.30;;;;;;;7.98;86.61;98931.06;1782123;80;25205;-67
2024/03/25 07:25:41;;;;;;;26.45;15.00;;;;;;;8.12;86.86;98927.59;1782209;80;25519;-74
2024/03/25 07:28:07;;;;;;;21.70;14.20;;;;;;;8.44;86.98;98933.43;1782122;80;25526;-67
2024/03/25 07:30:34;;;;;;;23.00;13.93;;;;;;;8.67;87.06;98931.22;1782196;80;29424;-67
2024/03/25 07:33:00;;;;;;;19.50;13.00;;;;;;;8.95;86.11;98923.92;1782135;80;25818;-67
2024/03/25 07:35:26;;;;;;;18.55;11.68;;;;;;;9.35;87.21;98928.78;1782139;80;25182;-67
2024/03/25 07:37:53;;;;;;;19.65;11.73;;;;;;;9.84;83.54;98933.45;1782123;80;25953;-68
2024/03/25 07:40:21;;;;;;;17.50;11.88;;;;;;;9.97;83.62;98937.73;1782162;80;25566;-68
2024/03/25 07:42:49;;;;;;;19.20;12.25;;;;;;;10.16;80.44;98939.86;1782186;80;27384;-67
2024/03/25 07:45:16;;;;;;;16.12;10.98;;;;;;;10.44;81.98;98935.16;1778983;80;25572;-66
2024/03/25 07:47:42;;;;;;;17.67;11.40;;;;;;;11.01;83.30;98935.41;1775639;80;25377;-67
2024/03/25 07:50:10;;;;;;;17.73;10.78;;;;;;;11.51;81.03;98938.67;1776831;80;25776;-68
2024/03/25 07:52:40;;;;;;;17.30;11.10;;;;;;;11.85;77.99;98941.03;1776972;80;25373;-62
2024/03/25 07:55:06;;;;;;;18.92;10.58;;;;;;;12.15;77.99;98940.03;1776751;79;27392;-63
2024/03/25 07:57:33;;;;;;;14.25;9.53;;;;;;;12.59;75.42;98940.42;1776790;80;25377;-63
2024/03/25 07:59:59;;;;;;;16.23;10.00;;;;;;;13.27;74.42;98934.98;1776872;80;25427;-63
2024/03/25 08:02:26;;;;;;;13.50;9.43;;;;;;;14.00;72.22;98937.21;1776787;80;26286;-63
2024/03/25 08:04:52;;;;;;;12.90;9.08;;;;;;;14.75;71.34;98936.73;1776834;80;25544;-62
2024/03/25 08:07:18;;;;;;;14.65;9.20;;;;;;;15.52;69.76;98941.84;1776876;79;27443;-62
2024/03/25 08:09:45;;;;;;;12.00;8.55;;;;;;;16.06;66.95;98935.70;1776741;80;25432;-63
2024/03/25 08:12:11;;;;;;;15.45;9.33;;;;;;;16.55;64.52;98941.06;1776951;80;25564;-62
2024/03/25 08:14:37;;;;;;;12.53;7.87;;;;;;;16.91;63.20;98931.73;1776913;80;25804;-62
2024/03/25 08:17:04;;;;;;;12.78;7.95;;;;;;;17.49;62.41;98928.55;1776856;80;25623;-62
2024/03/25 08:19:31;;;;;;;13.78;7.00;;;;;;;17.94;60.53;98932.30;1776851;80;27330;-62
2024/03/25 08:21:58;;;;;;;12.18;7.55;;;;;;;18.38;59.71;98927.73;1776865;80;25388;-62
2024/03/25 08:24:24;;;;;;;11.20;7.95;;;;;;;18.91;59.52;98936.20;1776948;80;25381;-61
2024/03/25 08:26:50;;;;;;;71.37;66.53;;;;;;;19.26;59.27;98935.25;1776816;80;25574;-63
2024/03/25 08:32:55;;;;;;;76.50;71.27;;;;;;;19.02;51.53;98945.17;1868317;76;31263;-62
2024/03/25 08:35:21;;;;;;;73.72;68.75;;;;;;;18.47;50.60;98932.23;1824504;78;25379;-62
2024/03/25 08:37:47;;;;;;;75.55;70.32;;;;;;;17.94;50.55;98941.28;1823986;78;27519;-61
2024/03/25 08:40:14;;;;;;;72.27;67.05;;;;;;;17.40;51.37;98935.77;1823333;78;25844;-61
2024/03/25 08:42:40;;;;;;;11.43;7.72;;;;;;;17.09;51.15;98949.52;1824506;78;25506;-61
2024/03/25 08:45:08;;;;;;;13.25;7.85;;;;;;;16.93;52.17;98941.67;1824428;78;26935;-60
2024/03/25 08:47:34;;;;;;;10.70;7.28;;;;;;;17.05;52.40;98951.47;1824519;78;25368;-60
2024/03/25 08:50:00;;;;;;;13.90;7.42;;;;;;;16.29;50.66;98950.27;1824520;78;28557;-59
2024/03/25 08:52:27;;;;;;;11.90;7.72;;;;;;;15.54;51.71;98950.43;1824408;78;25640;-64
2024/03/25 08:54:53;;;;;;;10.95;7.53;;;;;;;15.04;52.44;98954.77;1823549;78;25687;-65
2024/03/25 08:57:20;;;;;;;12.82;8.68;;;;;;;14.43;52.66;98952.60;1823276;78;25623;-65
2024/03/25 08:59:46;;;;;;;11.88;8.40;;;;;;;13.93;53.01;98951.28;1823394;78;25644;-65
2024/03/25 09:02:12;;;;;;;12.25;8.35;;;;;;;13.46;53.46;98955.91;1823329;78;27470;-65
2024/03/25 09:04:39;;;;;;;10.25;7.80;;;;;;;13.00;54.57;98959.28;1823263;78;26163;-64
2024/03/25 09:07:06;;;;;;;13.00;7.90;;;;;;;12.66;55.00;98961.69;1823340;78;25699;-65
2024/03/25 09:12:17;;;;;;;10.82;7.40;;;;;;;12.06;56.46;98967.33;1824526;77;25437;-65
2024/03/25 09:14:43;;;;;;;12.65;7.40;;;;;;;11.91;57.25;98962.13;1823999;78;28102;-64
2024/03/25 09:17:09;;;;;;;10.72;6.45;;;;;;;11.86;58.31;98964.29;1822889;78;25703;-60
2024/03/25 09:19:35;;;;;;;17.65;13.48;;;;;;;11.79;58.16;98971.67;1822983;78;25668;-61
2024/03/25 09:22:02;;;;;;;11.75;7.12;;;;;;;11.65;58.14;98968.61;1822930;78;25684;-61
2024/03/25 09:24:28;;;;;;;12.05;7.30;;;;;;;11.56;58.52;98968.20;1823031;78;25747;-61
2024/03/25 09:26:54;;;;;;;8.73;5.55;;;;;;;11.48;58.57;98967.80;1823043;78;27999;-60
2024/03/25 09:29:20;;;;;;;10.05;5.45;;;;;;;11.54;58.17;98965.61;1823129;78;25663;-61
2024/03/25 09:31:46;;;;;;;7.62;4.53;;;;;;;11.68;58.12;98958.41;1826659;77;25533;-61
2024/03/25 09:34:13;;;;;;;8.53;5.50;;;;;;;11.82;58.19;98960.72;1830518;77;25429;-61
2024/03/25 09:36:40;;;;;;;7.85;5.28;;;;;;;11.78;57.52;98958.70;1830599;78;25432;-60
2024/03/25 09:39:06;;;;;;;10.38;5.55;;;;;;;11.76;57.55;98961.52;1830503;77;27646;-60
2024/03/25 09:41:39;;;;;;;80.75;75.47;;;;;;;11.61;56.95;98961.73;1830423;78;25431;-60
2024/03/25 09:44:06;;;;;;;81.75;76.17;;;;;;;11.43;56.83;98952.38;1829955;77;25434;-61
2024/03/25 09:46:34;;;;;;;80.03;74.55;;;;;;;11.25;56.88;98954.02;1829880;78;25507;-61
2024/03/25 09:49:05;;;;;;;77.92;72.50;;;;;;;11.12;57.17;98964.14;1829918;77;25399;-62
2024/03/25 09:51:29;;;;;;;12.53;8.08;;;;;;;11.07;57.93;98961.67;1829768;77;28140;-66
2024/03/25 09:53:55;;;;;;;8.55;5.30;;;;;;;11.27;58.57;98963.97;1829959;77;25428;-61
2024/03/25 09:56:22;;;;;;;9.05;5.05;;;;;;;11.63;59.95;98968.95;1829873;78;25495;-62
2024/03/25 09:58:49;;;;;;;6.15;4.78;;;;;;;12.22;57.66;98972.72;1829897;77;25569;-61
2024/03/25 10:01:15;;;;;;;7.47;5.15;;;;;;;12.78;56.83;98967.56;1829964;77;25517;-59
2024/03/25 10:03:41;;;;;;;8.53;4.80;;;;;;;13.27;55.86;98964.27;1829945;77;27532;-62
2024/03/25 10:06:09;;;;;;;7.72;4.65;;;;;;;13.75;54.01;98966.70;1829826;77;25608;-62
2024/03/25 10:08:37;;;;;;;4.87;4.22;;;;;;;14.26;52.49;98955.27;1830005;77;25436;-62
2024/03/25 10:11:03;;;;;;;7.17;4.37;;;;;;;14.22;52.50;98955.22;1829879;77;25835;-62
2024/03/25 10:13:29;;;;;;;9.08;4.92;;;;;;;14.05;51.94;98967.39;1829972;77;25599;-59
2024/03/25 10:15:56;;;;;;;9.08;5.05;;;;;;;14.27;52.37;98963.63;1829947;77;27468;-60
2024/03/25 10:18:23;;;;;;;8.85;5.10;;;;;;;14.31;51.20;98960.40;1829852;78;25388;-62
2024/03/25 10:20:53;;;;;;;6.50;5.17;;;;;;;14.31;50.93;98972.05;1829920;77;25524;-60
2024/03/25 10:23:26;;;;;;;9.63;5.40;;;;;;;14.81;52.46;98967.90;1829891;77;25369;-61
2024/03/25 10:25:54;;;;;;;6.72;4.78;;;;;;;15.76;51.59;98961.75;1829969;78;25633;-61
2024/03/25 10:28:21;;;;;;;7.87;3.98;;;;;;;16.73;49.76;98967.88;1829927;77;27524;-61
2024/03/25 10:30:48;;;;;;;6.85;5.10;;;;;;;17.04;47.20;98977.21;1829904;78;25396;-61
2024/03/25 10:33:14;;;;;;;8.80;4.80;;;;;;;17.09;46.48;98969.42;1829874;77;25354;-61
2024/03/25 10:35:41;;;;;;;7.05;4.92;;;;;;;17.79;49.06;98961.56;1829942;77;25792;-62
2024/03/25 10:38:10;;;;;;;7.55;5.25;;;;;;;17.88;46.56;98965.52;1829980;77;25404;-62
2024/03/25 10:40:39;;;;;;;;;;;;;;;17.80;46.58;98965.88;1832654;78;27987;-61
2024/03/25 10:43:13;;;;;;;5.83;5.20;;;;;;;17.28;45.59;98964.23;1830000;78;25357;-61
2024/03/25 10:45:48;;;;;;;7.53;4.95;;;;;;;16.40;44.67;98979.79;1829986;78;25529;-61
2024/03/25 10:48:30;;;;;;;6.03;4.50;;;;;;;15.54;45.31;98968.14;1841412;77;25452;-61
2024/03/25 10:50:58;;;;;;;9.95;5.53;;;;;;;14.81;45.78;98968.48;1829983;77;25663;-61
2024/03/25 10:53:27;;;;;;;6.42;4.92;;;;;;;14.05;46.37;98978.27;1829918;77;29656;-62
2024/03/25 10:55:56;;;;;;;6.83;4.92;;;;;;;13.43;48.58;98978.36;1829917;77;25403;-61
2024/03/25 10:58:23;;;;;;;8.83;4.50;;;;;;;12.94;50.76;98987.06;1830222;77;25551;-63
2024/03/25 11:00:56;;;;;;;6.37;4.70;;;;;;;12.48;52.49;98990.34;1829931;77;25486;-60
2024/03/25 11:03:23;;;;;;;8.70;5.00;;;;;;;12.05;53.95;99005.03;1841018;77;25589;-60
2024/03/25 11:05:50;;;;;;;6.85;4.20;;;;;;;11.52;54.98;99003.86;1829931;77;27439;-61
2024/03/25 11:08:18;;;;;;;11.12;4.97;;;;;;;11.03;55.75;99004.06;1829838;77;25442;-63
2024/03/25 11:10:48;;;;;;;7.72;4.80;;;;;;;10.55;56.95;99007.11;1829912;77;25449;-65
2024/03/25 11:13:18;;;;;;;7.12;4.95;;;;;;;10.03;56.81;98999.09;1829864;78;25542;-66
2024/03/25 11:15:47;;;;;;;8.03;5.47;;;;;;;9.54;58.99;99001.14;1830035;77;25402;-66
2024/03/25 11:18:23;;;;;;;7.35;5.85;;;;;;;9.10;60.90;98988.61;1830103;78;27490;-66
2024/03/25 11:20:46;;;;;;;11.30;6.58;;;;;;;8.85;63.44;98983.65;1829605;77;25618;-66
2024/03/25 11:23:14;;;;;;;9.10;6.97;;;;;;;8.83;66.27;98979.15;1830010;78;25532;-65
2024/03/25 11:25:42;;;;;;;11.20;7.60;;;;;;;9.27;74.46;98974.95;1829809;77;25475;-64
2024/03/25 11:28:11;;;;;;;10.82;8.30;;;;;;;10.51;83.69;98975.13;1829962;77;25630;-64
2024/03/25 11:30:41;;;;;;;9.93;7.95;;;;;;;11.49;84.48;98971.28;1829870;77;29695;-64
2024/03/25 11:33:05;;;;;;;11.95;7.50;;;;;;;11.82;79.71;98965.56;1829600;77;25791;-63
2024/03/25 11:35:39;;;;;;;8.03;5.35;;;;;;;11.90;76.74;98961.89;1829929;77;25377;-64
2024/03/25 11:38:06;;;;;;;7.62;5.58;;;;;;;11.87;75.57;98967.23;1829790;78;25566;-63